Time;durP1;ratioP1;P1;durP2;ratioP2;P2;SDS_P1;SDS_P2;PMS_P1;PMS_P2;Temp;Humidity;BMP_temperature;BMP_pressure;BME280_temperature;BME280_humidity;BME280_pressure;Samples;Min_cycle;Max_cycle;Signal;HPM_P1;HPM_P2
2022/01/01 00:01:19;;;;;;;33.28;16.95;;;11.50;99.90;;;;;;5017957;28;20083;-74
2022/01/01 00:03:45;;;;;;;34.65;18.75;;;11.50;99.90;;;;;;5019919;28;20055;-73
2022/01/01 00:06:10;;;;;;;29.27;18.05;;;11.60;99.90;;;;;;5037931;28;20546;-73
2022/01/01 00:08:36;;;;;;;40.10;19.40;;;11.60;99.90;;;;;;5018836;28;20733;-73
2022/01/01 00:11:01;;;;;;;35.55;20.58;;;11.60;99.90;;;;;;5020173;28;20801;-74
2022/01/01 00:13:27;;;;;;;43.35;21.92;;;11.60;99.90;;;;;;5018733;28;20045;-73
2022/01/01 00:15:52;;;;;;;35.15;19.70;;;11.60;99.90;;;;;;5037670;28;20407;-73
2022/01/01 00:18:18;;;;;;;42.13;20.13;;;11.60;99.90;;;;;;5037292;28;20397;-73
2022/01/01 00:20:43;;;;;;;32.60;20.02;;;11.60;99.90;;;;;;5019555;28;20104;-73
2022/01/01 00:23:09;;;;;;;35.58;19.00;;;11.60;99.90;;;;;;5020181;28;20103;-73
2022/01/01 00:25:34;;;;;;;35.70;17.70;;;11.60;99.90;;;;;;5037846;28;20045;-73
2022/01/01 00:28:00;;;;;;;36.08;17.58;;;11.60;99.90;;;;;;5037427;28;20049;-73
2022/01/01 00:30:25;;;;;;;31.17;17.60;;;11.60;99.90;;;;;;5019910;28;20460;-73
2022/01/01 00:32:51;;;;;;;33.67;17.20;;;11.60;99.90;;;;;;5037935;28;20603;-73
2022/01/01 00:35:16;;;;;;;38.95;18.33;;;11.60;99.90;;;;;;5018905;28;20056;-73
2022/01/01 00:37:42;;;;;;;29.48;17.67;;;11.60;99.90;;;;;;5037618;28;20049;-74
2022/01/01 00:40:08;;;;;;;34.47;16.77;;;11.60;99.90;;;;;;5036667;28;20140;-73
2022/01/01 00:42:33;;;;;;;33.88;16.77;;;11.60;99.90;;;;;;5036814;28;20138;-73
2022/01/01 00:44:59;;;;;;;42.97;17.15;;;11.60;99.90;;;;;;5019587;28;20052;-73
2022/01/01 00:47:25;;;;;;;29.92;16.23;;;11.60;99.90;;;;;;5037295;28;20052;-73
2022/01/01 00:49:50;;;;;;;39.78;18.27;;;11.60;99.90;;;;;;5018730;28;20098;-73
2022/01/01 00:52:16;;;;;;;33.95;17.30;;;11.60;99.90;;;;;;5036629;28;20155;-73
2022/01/01 00:54:41;;;;;;;45.20;21.30;;;11.60;99.90;;;;;;5019395;28;20147;-73
2022/01/01 00:57:07;;;;;;;38.47;19.52;;;11.60;99.90;;;;;;5036194;28;20771;-73
2022/01/01 00:59:33;;;;;;;35.17;19.63;;;11.60;99.90;;;;;;5037116;28;20047;-73
2022/01/01 01:01:59;;;;;;;32.47;16.52;;;11.60;99.90;;;;;;5015279;28;20157;-73
2022/01/01 01:04:25;;;;;;;34.22;16.65;;;11.60;99.90;;;;;;5034978;28;20902;-73
2022/01/01 01:06:51;;;;;;;26.40;16.42;;;11.50;99.90;;;;;;5017550;28;20060;-73
2022/01/01 01:09:17;;;;;;;37.55;15.60;;;11.50;99.90;;;;;;5018325;28;20041;-73
2022/01/01 01:11:46;;;;;;;31.27;14.93;;;11.50;99.90;;;;;;5035532;28;20057;-73
2022/01/01 01:14:20;;;;;;;32.83;15.38;;;11.40;99.90;;;;;;5036401;28;20132;-73
2022/01/01 01:16:46;;;;;;;25.55;14.38;;;11.40;99.90;;;;;;5036034;28;20055;-73
2022/01/01 01:19:12;;;;;;;31.58;14.73;;;11.40;99.90;;;;;;5018454;28;20591;-73
2022/01/01 01:21:37;;;;;;;29.88;14.07;;;11.30;99.90;;;;;;5036431;28;20060;-73
2022/01/01 01:24:03;;;;;;;29.75;14.02;;;11.30;99.90;;;;;;5017242;28;20052;-73
2022/01/01 01:26:29;;;;;;;36.53;14.38;;;11.30;99.90;;;;;;5035975;28;20625;-73
2022/01/01 01:28:56;;;;;;;27.77;13.80;;;11.30;99.90;;;;;;5017757;28;20048;-73
2022/01/01 01:31:24;;;;;;;24.27;14.00;;;11.30;99.90;;;;;;5015887;28;20067;-73
2022/01/01 01:33:50;;;;;;;37.15;13.73;;;11.30;99.90;;;;;;5017800;28;20056;-72
2022/01/01 01:36:15;;;;;;;32.60;13.60;;;11.20;99.90;;;;;;5017824;28;20041;-73
2022/01/01 01:38:41;;;;;;;25.20;13.35;;;11.20;99.90;;;;;;5017347;28;20056;-73
2022/01/01 01:41:08;;;;;;;26.45;14.43;;;11.30;99.90;;;;;;5017623;28;20130;-73
2022/01/01 01:43:34;;;;;;;36.45;16.02;;;11.30;99.90;;;;;;5017269;28;20044;-73
2022/01/01 01:46:04;;;;;;;37.58;15.80;;;11.20;99.90;;;;;;5034765;28;20064;-72
2022/01/01 01:48:31;;;;;;;37.80;16.27;;;11.30;99.90;;;;;;5017824;28;20052;-72
2022/01/01 01:50:57;;;;;;;45.05;19.48;;;11.30;99.90;;;;;;5034718;28;20072;-72
2022/01/01 01:53:23;;;;;;;41.15;20.00;;;11.30;99.90;;;;;;5034916;28;20076;-72
2022/01/01 01:55:49;;;;;;;46.90;20.52;;;11.30;99.90;;;;;;5036034;28;20136;-72
2022/01/01 01:58:16;;;;;;;42.13;22.08;;;11.30;99.90;;;;;;5034221;28;20138;-72
2022/01/01 02:03:22;;;;;;;38.92;24.17;;;11.30;99.90;;;;;;5017801;28;20130;-72
2022/01/01 02:05:48;;;;;;;49.08;25.05;;;11.30;99.90;;;;;;5035580;28;20053;-72
2022/01/01 02:08:16;;;;;;;41.13;24.23;;;11.30;99.90;;;;;;5018608;28;20673;-72
2022/01/01 02:10:42;;;;;;;48.58;24.35;;;11.30;99.90;;;;;;5037833;28;20046;-72
2022/01/01 02:13:16;;;;;;;45.97;23.77;;;11.40;99.90;;;;;;5021151;28;20040;-72
2022/01/01 02:16:00;;;;;;;49.15;25.17;;;11.40;99.90;;;;;;5039813;28;20881;-72
2022/01/01 02:18:26;;;;;;;41.28;25.25;;;11.40;99.90;;;;;;5021851;28;20132;-72
2022/01/01 02:20:55;;;;;;;47.90;23.23;;;11.40;99.90;;;;;;5021355;28;20133;-72
2022/01/01 02:23:23;;;;;;;44.72;25.33;;;11.40;99.90;;;;;;5039623;28;20464;-72
2022/01/01 02:25:50;;;;;;;48.53;25.83;;;11.40;99.90;;;;;;5039564;28;20045;-73
2022/01/01 02:28:16;;;;;;;54.50;25.27;;;11.50;99.90;;;;;;5038818;28;20051;-72
2022/01/01 02:30:41;;;;;;;57.50;27.90;;;11.50;99.90;;;;;;5021396;28;20998;-72
2022/01/01 02:33:07;;;;;;;60.50;26.02;;;11.50;99.90;;;;;;5039466;28;20059;-72
2022/01/01 02:35:33;;;;;;;56.83;25.50;;;11.50;99.90;;;;;;5038397;28;20049;-72
2022/01/01 02:37:59;;;;;;;50.42;29.80;;;11.60;99.90;;;;;;5038764;28;20127;-72
2022/01/01 02:40:24;;;;;;;59.80;29.05;;;11.50;99.90;;;;;;5039157;28;20060;-72
2022/01/01 02:42:51;;;;;;;49.83;27.52;;;11.60;99.90;;;;;;5038038;28;20050;-72
2022/01/01 02:45:17;;;;;;;53.55;28.95;;;11.60;99.90;;;;;;5020648;28;20098;-72
2022/01/01 02:47:43;;;;;;;51.17;27.17;;;11.60;99.90;;;;;;5039186;28;20725;-72
2022/01/01 02:50:10;;;;;;;47.92;28.33;;;11.60;99.90;;;;;;5020727;28;20053;-72
2022/01/01 02:52:36;;;;;;;48.58;27.67;;;11.60;99.90;;;;;;5021526;28;20056;-72
2022/01/01 02:55:03;;;;;;;47.10;24.90;;;11.60;99.90;;;;;;5038961;28;20053;-72
2022/01/01 02:57:29;;;;;;;53.08;27.13;;;11.60;99.90;;;;;;5037516;28;20805;-72
2022/01/01 02:59:55;;;;;;;47.28;26.73;;;11.60;99.90;;;;;;5038545;28;20049;-73
2022/01/01 03:02:21;;;;;;;55.72;26.38;;;11.60;99.90;;;;;;5038170;28;20041;-72
2022/01/01 03:04:46;;;;;;;53.17;26.70;;;11.60;99.90;;;;;;5038362;28;20052;-72
2022/01/01 03:07:12;;;;;;;50.35;26.92;;;11.60;99.90;;;;;;5020688;28;20076;-72
2022/01/01 03:09:38;;;;;;;52.67;26.92;;;11.60;99.90;;;;;;5038160;28;20067;-73
2022/01/01 03:12:06;;;;;;;50.35;27.25;;;11.70;99.90;;;;;;5038760;28;20087;-72
2022/01/01 03:14:32;;;;;;;46.15;26.73;;;11.70;99.90;;;;;;5039268;28;20119;-72
2022/01/01 03:16:58;;;;;;;46.78;25.83;;;11.60;99.90;;;;;;5019479;28;20052;-72
2022/01/01 03:19:24;;;;;;;41.90;26.58;;;11.60;99.90;;;;;;5020077;28;20508;-73
2022/01/01 03:21:49;;;;;;;45.90;24.48;;;11.60;99.90;;;;;;5038520;28;20597;-72
2022/01/01 03:24:16;;;;;;;55.17;28.58;;;11.60;99.90;;;;;;5019952;28;20048;-73
2022/01/01 03:26:42;;;;;;;46.67;25.98;;;11.70;99.90;;;;;;5038301;28;20077;-73
2022/01/01 03:29:07;;;;;;;51.80;26.25;;;11.60;99.90;;;;;;5019632;28;20135;-72
2022/01/01 03:31:33;;;;;;;49.63;26.95;;;11.60;99.90;;;;;;5037901;28;20136;-73
2022/01/01 03:33:59;;;;;;;56.60;26.30;;;11.60;99.90;;;;;;5020570;28;20053;-72
2022/01/01 03:36:25;;;;;;;52.00;29.10;;;11.60;99.90;;;;;;5020471;28;20044;-73
2022/01/01 03:38:51;;;;;;;62.33;28.67;;;11.70;99.90;;;;;;5019367;28;20056;-72
2022/01/01 03:41:17;;;;;;;55.60;29.63;;;11.60;99.90;;;;;;5038085;28;20053;-73
2022/01/01 03:43:43;;;;;;;52.63;27.88;;;11.60;99.90;;;;;;5038384;28;20132;-72
2022/01/01 03:46:08;;;;;;;49.83;33.25;;;11.60;99.90;;;;;;5020033;28;20049;-73
2022/01/01 03:48:34;;;;;;;53.38;31.00;;;11.60;99.90;;;;;;5020239;28;20996;-72
2022/01/01 03:50:59;;;;;;;62.50;33.60;;;11.70;99.90;;;;;;5037836;28;20074;-72
2022/01/01 03:53:25;;;;;;;55.17;29.30;;;11.60;99.90;;;;;;5037469;28;20855;-72
2022/01/01 03:55:53;;;;;;;60.70;33.35;;;11.60;99.90;;;;;;5019811;28;20045;-72
2022/01/01 03:58:18;;;;;;;59.38;32.03;;;11.60;99.90;;;;;;5020429;28;20508;-72
2022/01/01 04:00:44;;;;;;;54.58;32.00;;;11.60;99.90;;;;;;5037982;28;20041;-72
2022/01/01 04:03:12;;;;;;;56.08;32.65;;;11.60;99.90;;;;;;5038441;28;20076;-72
2022/01/01 04:05:42;;;;;;;60.95;36.88;;;11.60;99.90;;;;;;5019780;28;20511;-72
2022/01/01 04:08:08;;;;;;;55.30;32.78;;;11.60;99.90;;;;;;5038039;28;20091;-72
2022/01/01 04:10:35;;;;;;;61.42;35.08;;;11.60;99.90;;;;;;5038423;28;20157;-72
2022/01/01 04:13:02;;;;;;;63.25;36.88;;;11.60;99.90;;;;;;5019525;28;20061;-72
2022/01/01 04:15:29;;;;;;;61.03;34.00;;;11.60;99.90;;;;;;5037946;28;20036;-72
2022/01/01 04:18:01;;;;;;;58.33;35.00;;;11.50;99.90;;;;;;5019876;28;20780;-73
2022/01/01 04:20:27;;;;;;;68.53;35.67;;;11.60;99.90;;;;;;5037308;28;20056;-73
2022/01/01 04:22:54;;;;;;;61.40;35.17;;;11.50;99.90;;;;;;5036941;28;20896;-73
2022/01/01 04:25:20;;;;;;;60.38;35.50;;;11.50;99.90;;;;;;5037524;28;20087;-72
2022/01/01 04:27:51;;;;;;;72.75;38.50;;;11.50;99.90;;;;;;5018856;28;20115;-72
2022/01/01 04:30:17;;;;;;;59.35;36.03;;;11.50;99.90;;;;;;5037045;28;20140;-72
2022/01/01 04:32:42;;;;;;;60.45;33.83;;;11.60;99.90;;;;;;5037546;28;20091;-72
2022/01/01 04:35:09;;;;;;;69.90;38.63;;;11.60;99.90;;;;;;5036562;28;20083;-72
2022/01/01 04:37:35;;;;;;;60.53;34.42;;;11.60;99.90;;;;;;5037360;28;20852;-72
2022/01/01 04:40:02;;;;;;;67.70;37.35;;;11.60;99.90;;;;;;5019061;28;20057;-72
2022/01/01 04:42:29;;;;;;;64.45;37.15;;;11.60;99.90;;;;;;5019149;28;20492;-72
2022/01/01 04:44:55;;;;;;;61.15;35.63;;;11.50;99.90;;;;;;5019646;28;20057;-72
2022/01/01 04:47:20;;;;;;;63.10;35.20;;;11.60;99.90;;;;;;5018826;28;20052;-72
2022/01/01 04:49:46;;;;;;;64.30;35.58;;;11.60;99.90;;;;;;5018521;28;20102;-72
2022/01/01 04:52:12;;;;;;;64.45;36.95;;;11.60;99.90;;;;;;5018420;28;20091;-72
2022/01/01 04:54:41;;;;;;;64.13;35.55;;;11.60;99.90;;;;;;5036030;28;20049;-72
2022/01/01 04:57:07;;;;;;;66.28;37.08;;;11.60;99.90;;;;;;5036172;28;20134;-72
2022/01/01 04:59:34;;;;;;;67.43;36.67;;;11.60;99.90;;;;;;5036306;28;20052;-72
2022/01/01 05:02:00;;;;;;;65.80;36.42;;;11.60;99.90;;;;;;5035688;28;20040;-72
2022/01/01 05:04:26;;;;;;;67.45;37.10;;;11.60;99.90;;;;;;5018433;28;20044;-72
2022/01/01 05:06:52;;;;;;;65.38;40.70;;;11.60;99.90;;;;;;5036492;28;20068;-72
2022/01/01 05:09:19;;;;;;;61.67;37.15;;;11.60;99.90;;;;;;5035698;28;20092;-72
2022/01/01 05:11:46;;;;;;;62.65;39.42;;;11.60;99.90;;;;;;5029557;28;20048;-72
2022/01/01 05:14:12;;;;;;;70.00;37.78;;;11.60;99.90;;;;;;5018076;28;20568;-72
2022/01/01 05:16:38;;;;;;;71.53;38.63;;;11.60;99.90;;;;;;5035600;28;20049;-72
2022/01/01 05:19:05;;;;;;;59.10;39.65;;;11.60;99.90;;;;;;5017946;28;20049;-72
2022/01/01 05:21:33;;;;;;;66.82;39.45;;;11.60;99.90;;;;;;5018145;28;20071;-72
2022/01/01 05:23:59;;;;;;;73.82;40.33;;;11.60;99.90;;;;;;5017816;28;20053;-72
2022/01/01 05:26:25;;;;;;;63.05;38.58;;;11.60;99.90;;;;;;5017964;28;20060;-72
2022/01/01 05:28:51;;;;;;;66.95;38.65;;;11.60;99.90;;;;;;5036408;28;20048;-73
2022/01/01 05:31:19;;;;;;;66.88;36.05;;;11.60;99.90;;;;;;5035545;28;20942;-73
2022/01/01 05:33:48;;;;;;;70.82;37.03;;;11.60;99.90;;;;;;5036301;28;20167;-73
2022/01/01 05:36:14;;;;;;;64.80;38.13;;;11.60;99.90;;;;;;5036110;28;20132;-73
2022/01/01 05:38:42;;;;;;;74.00;40.67;;;11.60;99.90;;;;;;5017633;28;20074;-73
2022/01/01 05:41:08;;;;;;;68.13;37.60;;;11.70;99.90;;;;;;5035079;28;20060;-73
2022/01/01 05:43:33;;;;;;;70.03;37.58;;;11.70;99.90;;;;;;5036212;28;20045;-73
2022/01/01 05:45:59;;;;;;;63.45;39.03;;;11.70;99.90;;;;;;5035281;28;20048;-73
2022/01/01 05:48:25;;;;;;;68.57;38.17;;;11.60;99.90;;;;;;5035843;28;20088;-72
2022/01/01 05:50:51;;;;;;;66.65;37.65;;;11.70;99.90;;;;;;5035854;28;20047;-73
2022/01/01 05:53:17;;;;;;;64.82;37.35;;;11.60;99.90;;;;;;5016464;28;20122;-73
2022/01/01 05:55:43;;;;;;;66.63;36.05;;;11.60;99.90;;;;;;5017493;28;20134;-72
2022/01/01 05:58:08;;;;;;;63.30;35.88;;;11.60;99.90;;;;;;5017155;28;20136;-72
2022/01/01 06:00:35;;;;;;;63.03;36.17;;;11.60;99.90;;;;;;5017738;28;20048;-73
2022/01/01 06:03:01;;;;;;;62.75;34.15;;;11.60;99.90;;;;;;5017632;28;20052;-73
2022/01/01 06:05:28;;;;;;;58.05;34.85;;;11.60;99.90;;;;;;5016739;28;20130;-72
2022/01/01 06:07:55;;;;;;;54.75;32.25;;;11.60;99.90;;;;;;5017624;28;20053;-72
2022/01/01 06:10:21;;;;;;;64.20;34.45;;;11.60;99.90;;;;;;5018227;28;20102;-72
2022/01/01 06:12:47;;;;;;;59.53;30.67;;;11.60;99.90;;;;;;5035473;28;20150;-72
2022/01/01 06:15:12;;;;;;;56.05;29.42;;;11.60;99.90;;;;;;5036114;28;20347;-73
2022/01/01 06:17:38;;;;;;;48.45;27.17;;;11.50;99.90;;;;;;5017885;28;20466;-73
2022/01/01 06:20:04;;;;;;;47.30;25.25;;;11.60;99.90;;;;;;5016812;28;20049;-73
2022/01/01 06:22:30;;;;;;;57.60;25.63;;;11.60;99.90;;;;;;5035620;28;20057;-73
2022/01/01 06:24:55;;;;;;;50.28;24.17;;;11.60;99.90;;;;;;5017902;28;20049;-73
2022/01/01 06:27:21;;;;;;;44.47;22.38;;;11.60;99.90;;;;;;5017143;28;20041;-73
2022/01/01 06:29:46;;;;;;;45.40;22.08;;;11.60;99.90;;;;;;5036015;28;20049;-73
2022/01/01 06:32:13;;;;;;;51.13;21.55;;;11.60;99.90;;;;;;5017276;28;20060;-74
2022/01/01 06:34:39;;;;;;;43.65;23.90;;;11.60;99.90;;;;;;5017093;28;20053;-72
2022/01/01 06:37:05;;;;;;;44.88;21.90;;;11.60;99.90;;;;;;5017608;28;20056;-72
2022/01/01 06:39:31;;;;;;;39.55;21.13;;;11.50;99.90;;;;;;5017395;28;20139;-72
2022/01/01 06:41:56;;;;;;;38.47;22.08;;;11.60;99.90;;;;;;5034818;28;20777;-72
2022/01/01 06:44:22;;;;;;;45.63;20.90;;;11.60;99.90;;;;;;5017696;28;20573;-72
2022/01/01 06:46:47;;;;;;;37.95;20.88;;;11.50;99.90;;;;;;5017182;28;20135;-72
2022/01/01 06:49:13;;;;;;;38.45;21.15;;;11.60;99.90;;;;;;5017150;28;20057;-72
2022/01/01 06:51:38;;;;;;;40.65;22.50;;;11.60;99.90;;;;;;5035891;28;20696;-72
2022/01/01 06:54:05;;;;;;;37.63;21.13;;;11.60;99.90;;;;;;5036518;28;20049;-72
2022/01/01 06:56:31;;;;;;;36.85;22.17;;;11.60;99.90;;;;;;5038553;28;20049;-72
2022/01/01 06:58:56;;;;;;;38.47;21.88;;;11.60;99.90;;;;;;5020371;28;20049;-72
2022/01/01 07:01:22;;;;;;;45.38;22.25;;;11.70;99.90;;;;;;5038668;28;20523;-72
2022/01/01 07:03:47;;;;;;;43.90;21.67;;;11.70;99.90;;;;;;5037161;28;20036;-72
2022/01/01 07:06:13;;;;;;;42.25;22.17;;;11.70;99.90;;;;;;5021442;28;20091;-71
2022/01/01 07:08:39;;;;;;;45.70;22.05;;;11.70;99.90;;;;;;5020726;28;20056;-72
2022/01/01 07:11:04;;;;;;;41.78;19.63;;;11.70;99.90;;;;;;5021182;28;20044;-72
2022/01/01 07:13:30;;;;;;;39.17;20.95;;;11.70;99.90;;;;;;5039655;28;20055;-72
2022/01/01 07:15:56;;;;;;;38.03;20.70;;;11.70;99.90;;;;;;5020308;28;20067;-72
2022/01/01 07:18:21;;;;;;;42.72;18.73;;;11.70;99.90;;;;;;5039044;28;20233;-72
2022/01/01 07:20:47;;;;;;;44.60;20.48;;;11.80;99.90;;;;;;5039025;28;20044;-72
2022/01/01 07:23:12;;;;;;;34.90;18.15;;;11.80;99.90;;;;;;5037749;28;20557;-72
2022/01/01 07:25:38;;;;;;;36.13;19.65;;;11.80;99.90;;;;;;5038169;28;20554;-72
2022/01/01 07:28:03;;;;;;;42.72;21.33;;;11.80;99.90;;;;;;5038281;28;20048;-72
2022/01/01 07:30:29;;;;;;;33.67;18.90;;;11.80;99.90;;;;;;5035715;28;20122;-72
2022/01/01 07:32:55;;;;;;;35.13;20.90;;;11.80;99.90;;;;;;5036450;28;20056;-72
2022/01/01 07:35:21;;;;;;;37.55;17.48;;;11.80;99.90;;;;;;5035994;28;20051;-71
2022/01/01 07:37:48;;;;;;;39.40;17.92;;;11.90;99.90;;;;;;5016978;28;20579;-72
2022/01/01 07:40:15;;;;;;;38.55;19.23;;;11.90;99.90;;;;;;5033676;28;20132;-72
2022/01/01 07:42:42;;;;;;;30.52;17.02;;;11.90;99.90;;;;;;5017281;28;20056;-72
2022/01/01 07:45:09;;;;;;;38.75;18.60;;;11.90;99.90;;;;;;5031105;28;20049;-72
2022/01/01 07:47:35;;;;;;;31.92;18.17;;;11.90;99.90;;;;;;5019335;28;20859;-72
2022/01/01 07:50:00;;;;;;;41.70;17.50;;;12.00;99.90;;;;;;5019396;28;20079;-72
2022/01/01 07:52:26;;;;;;;32.92;16.30;;;12.00;99.90;;;;;;5017513;28;20822;-72
2022/01/01 07:54:51;;;;;;;38.25;16.92;;;12.00;99.90;;;;;;5019508;28;20447;-72
2022/01/01 07:57:17;;;;;;;32.35;16.77;;;12.00;99.90;;;;;;5019442;28;20073;-72
2022/01/01 07:59:43;;;;;;;28.67;16.15;;;12.00;99.90;;;;;;5018797;28;20041;-72
2022/01/01 08:02:09;;;;;;;35.22;16.80;;;12.00;99.90;;;;;;5037282;28;20056;-72
2022/01/01 08:04:34;;;;;;;26.75;14.90;;;12.00;99.90;;;;;;5034937;28;20053;-72
2022/01/01 08:07:01;;;;;;;31.80;15.88;;;12.00;99.90;;;;;;5035111;28;20084;-72
2022/01/01 08:09:27;;;;;;;28.23;14.55;;;12.60;99.90;;;;;;5037494;28;20057;-72
2022/01/01 08:11:54;;;;;;;27.02;15.60;;;12.10;99.90;;;;;;5018743;28;20041;-72
2022/01/01 08:14:21;;;;;;;25.33;15.90;;;12.10;99.90;;;;;;5019200;28;20057;-72
2022/01/01 08:17:00;;;;;;;31.70;15.85;;;12.10;99.90;;;;;;5036666;28;20041;-72
2022/01/01 08:19:27;;;;;;;31.05;16.27;;;12.10;99.90;;;;;;5036388;28;20048;-72
2022/01/01 08:21:53;;;;;;;34.40;17.02;;;12.10;99.90;;;;;;5019298;28;20694;-71
2022/01/01 08:24:19;;;;;;;39.70;18.48;;;12.20;99.90;;;;;;5019284;28;20060;-71
2022/01/01 08:26:45;;;;;;;35.35;16.50;;;12.20;99.90;;;;;;5018406;28;20072;-71
2022/01/01 08:29:12;;;;;;;38.78;19.20;;;12.20;99.90;;;;;;5036612;28;20208;-72
2022/01/01 08:31:37;;;;;;;39.67;18.85;;;12.20;99.90;;;;;;5036696;28;20797;-71
2022/01/01 08:34:03;;;;;;;37.50;19.13;;;12.20;99.90;;;;;;5036126;28;20056;-72
2022/01/01 08:36:29;;;;;;;35.20;19.55;;;12.20;99.90;;;;;;5019034;28;20055;-71
2022/01/01 08:38:54;;;;;;;43.20;20.73;;;12.60;99.90;;;;;;5036650;28;20052;-71
2022/01/01 08:41:20;;;;;;;38.70;19.05;;;12.20;99.90;;;;;;5018363;28;20060;-71
2022/01/01 08:43:45;;;;;;;37.17;19.27;;;12.30;99.90;;;;;;5036515;28;20048;-70
2022/01/01 08:46:11;;;;;;;38.22;21.00;;;12.30;99.90;;;;;;5036491;28;20049;-70
2022/01/01 08:48:37;;;;;;;35.50;20.00;;;12.30;99.90;;;;;;5015963;28;20053;-70
2022/01/01 08:51:17;;;;;;;37.90;18.48;;;12.30;99.90;;;;;;5018276;28;20604;-70
2022/01/01 08:53:43;;;;;;;40.03;21.05;;;12.30;99.90;;;;;;5013011;28;20076;-70
2022/01/01 08:56:10;;;;;;;32.42;20.15;;;12.30;99.90;;;;;;5018142;28;20080;-71
2022/01/01 08:58:36;;;;;;;48.88;21.75;;;12.30;99.90;;;;;;5019255;28;20076;-71
2022/01/01 09:01:02;;;;;;;34.55;19.52;;;12.30;99.90;;;;;;5035633;28;20071;-71
2022/01/01 09:03:28;;;;;;;36.03;19.00;;;12.30;99.90;;;;;;5018352;28;20673;-71
2022/01/01 09:05:54;;;;;;;38.10;21.58;;;12.30;99.90;;;;;;5035876;28;20055;-70
2022/01/01 09:08:19;;;;;;;41.80;20.38;;;12.30;99.90;;;;;;5017137;28;20121;-71
2022/01/01 09:10:45;;;;;;;39.38;21.05;;;12.40;99.90;;;;;;5017107;28;20041;-71
2022/01/01 09:13:10;;;;;;;31.90;20.63;;;12.40;99.90;;;;;;5033971;28;20041;-71
2022/01/01 09:15:36;;;;;;;38.55;20.45;;;12.50;99.90;;;;;;5033879;28;20048;-71
2022/01/01 09:18:02;;;;;;;40.65;19.90;;;12.50;99.90;;;;;;5017088;28;20135;-71
2022/01/01 09:20:27;;;;;;;38.00;21.73;;;12.50;99.90;;;;;;5035201;28;20057;-71
2022/01/01 09:22:53;;;;;;;35.35;19.63;;;12.50;99.90;;;;;;5017267;28;20040;-71
2022/01/01 09:25:18;;;;;;;39.13;21.20;;;12.60;99.90;;;;;;5017972;28;20049;-71
2022/01/01 09:27:44;;;;;;;33.92;18.83;;;12.60;99.90;;;;;;5017863;28;20169;-70
2022/01/01 09:30:10;;;;;;;33.13;21.25;;;12.70;99.90;;;;;;5017175;28;20387;-71
2022/01/01 09:32:36;;;;;;;34.88;18.77;;;12.70;99.90;;;;;;5018019;28;20084;-71
2022/01/01 09:35:03;;;;;;;32.90;19.05;;;12.10;99.90;;;;;;5035763;28;20064;-71
2022/01/01 09:37:29;;;;;;;32.30;18.33;;;12.80;99.90;;;;;;5035092;28;20052;-71
2022/01/01 09:39:56;;;;;;;34.25;18.27;;;12.80;99.90;;;;;;5035682;28;20065;-71
2022/01/01 09:42:22;;;;;;;35.13;18.33;;;12.80;99.90;;;;;;5017851;28;20439;-71
2022/01/01 09:44:51;;;;;;;29.45;15.82;;;12.90;99.90;;;;;;5035260;28;20408;-71
2022/01/01 09:47:16;;;;;;;27.92;16.83;;;12.90;99.90;;;;;;5018520;28;20052;-70
2022/01/01 09:49:42;;;;;;;32.20;17.70;;;12.90;99.90;;;;;;5017709;28;20159;-71
2022/01/01 09:52:09;;;;;;;27.67;15.95;;;12.90;99.90;;;;;;5035822;28;20102;-71
2022/01/01 09:54:35;;;;;;;23.63;16.75;;;13.00;99.90;;;;;;5036359;28;20053;-70
2022/01/01 09:57:02;;;;;;;29.65;16.80;;;13.00;99.90;;;;;;5018657;28;20102;-70
2022/01/01 09:59:27;;;;;;;26.20;15.48;;;13.00;99.90;;;;;;5035502;28;20119;-71
2022/01/01 10:01:53;;;;;;;23.58;14.55;;;13.00;99.90;;;;;;5016018;28;20056;-71
2022/01/01 10:04:19;;;;;;;23.13;16.02;;;13.00;99.90;;;;;;5033536;28;20049;-70
2022/01/01 10:07:03;;;;;;;25.38;14.93;;;13.00;99.90;;;;;;5016969;28;20052;-71
2022/01/01 10:09:37;;;;;;;28.38;16.13;;;13.00;99.90;;;;;;5035875;28;20048;-70
2022/01/01 10:12:06;;;;;;;36.58;16.85;;;13.00;99.90;;;;;;5037069;28;20065;-70
2022/01/01 10:14:45;;;;;;;35.75;15.25;;;13.00;99.90;;;;;;5010386;28;20053;-67
2022/01/01 10:17:15;;;;;;;28.05;15.57;;;13.00;99.90;;;;;;5016265;28;20072;-70
2022/01/01 10:19:41;;;;;;;29.08;16.02;;;13.00;99.90;;;;;;5015994;28;20421;-70
2022/01/01 10:22:11;;;;;;;24.85;15.80;;;13.00;99.90;;;;;;5013247;28;20076;-70
2022/01/01 10:27:42;;;;;;;29.65;16.80;;;13.00;99.90;;;;;;5034558;28;20045;-70
2022/01/01 10:27:45;;;;;;;22.45;15.05;;;13.10;99.90;;;;;;5033560;28;20058;-70
2022/01/01 10:30:28;;;;;;;21.55;14.90;;;13.10;99.90;;;;;;5038077;28;20084;-70
2022/01/01 10:33:01;;;;;;;;;;;13.00;99.90;;;;;;5016950;28;20052;-70
2022/01/01 10:35:34;;;;;;;26.52;16.08;;;13.00;99.90;;;;;;5019848;28;19924;-70
2022/01/01 10:38:02;;;;;;;26.05;14.52;;;13.00;99.90;;;;;;5039269;28;20045;-70
2022/01/01 10:40:28;;;;;;;24.98;14.80;;;13.00;99.90;;;;;;5019925;28;20053;-70
2022/01/01 10:42:54;;;;;;;22.38;12.80;;;13.00;99.90;;;;;;5019771;28;20783;-70
2022/01/01 10:45:34;;;;;;;25.40;13.73;;;13.00;99.90;;;;;;5038003;28;20039;-70
2022/01/01 10:48:40;;;;;;;24.10;13.95;;;13.00;99.90;;;;;;5037385;28;20044;-70
2022/01/01 10:51:07;;;;;;;25.73;13.45;;;13.00;99.90;;;;;;5035395;28;20052;-70
2022/01/01 10:53:34;;;;;;;22.02;13.43;;;13.00;99.90;;;;;;5017182;28;20060;-70
2022/01/01 10:56:21;;;;;;;23.48;12.80;;;13.10;99.90;;;;;;5019245;28;20049;-70
2022/01/01 10:58:58;;;;;;;14.15;11.25;;;13.00;99.90;;;;;;5037833;28;20084;-70
2022/01/01 11:01:24;;;;;;;19.50;12.77;;;13.10;99.90;;;;;;5019490;28;20152;-71
2022/01/01 11:03:53;;;;;;;18.38;9.93;;;13.10;99.90;;;;;;5037908;28;20516;-70
2022/01/01 11:06:19;;;;;;;23.65;11.27;;;13.10;99.90;;;;;;5019665;28;20161;-70
2022/01/01 11:08:46;;;;;;;21.88;12.25;;;13.20;99.90;;;;;;5037701;28;20124;-70
2022/01/01 11:11:13;;;;;;;22.75;12.35;;;13.20;99.90;;;;;;5020210;28;20107;-70
2022/01/01 11:13:40;;;;;;;20.45;10.20;;;13.20;99.90;;;;;;5036872;28;20080;-70
2022/01/01 11:16:07;;;;;;;23.02;11.75;;;13.30;99.90;;;;;;5038153;28;20053;-71
2022/01/01 11:18:34;;;;;;;17.92;10.45;;;13.40;99.90;;;;;;5038439;28;20037;-70
2022/01/01 11:21:01;;;;;;;17.73;11.00;;;13.30;99.90;;;;;;5036112;28;20120;-70
2022/01/01 11:23:27;;;;;;;19.05;10.95;;;13.30;99.90;;;;;;5038038;28;20040;-70
2022/01/01 11:25:54;;;;;;;20.10;10.73;;;13.40;99.90;;;;;;5038729;28;20045;-71
2022/01/01 11:28:21;;;;;;;16.75;11.07;;;13.30;99.90;;;;;;5038806;28;20056;-71
2022/01/01 11:30:57;;;;;;;17.25;9.60;;;13.40;99.90;;;;;;5038247;28;20045;-70
2022/01/01 11:33:32;;;;;;;12.38;8.32;;;13.30;99.90;;;;;;5020845;28;20534;-71
2022/01/01 11:35:59;;;;;;;17.65;9.80;;;13.40;99.90;;;;;;5018859;28;20060;-71
2022/01/01 11:38:26;;;;;;;13.60;8.88;;;13.30;99.90;;;;;;5037605;28;20109;-70
2022/01/01 11:41:02;;;;;;;18.20;8.27;;;13.40;99.90;;;;;;5037602;28;20111;-71
2022/01/01 11:43:46;;;;;;;17.65;8.05;;;13.40;99.90;;;;;;5018726;28;20079;-71
2022/01/01 11:46:40;;;;;;;14.93;7.30;;;13.40;99.90;;;;;;5036581;28;20048;-70
2022/01/01 11:49:06;;;;;;;14.50;8.02;;;13.30;99.90;;;;;;5016436;28;20084;-70
2022/01/01 11:51:48;;;;;;;18.48;8.52;;;13.40;99.90;;;;;;5037377;28;20084;-71
2022/01/01 11:54:18;;;;;;;11.00;7.40;;;13.40;99.90;;;;;;5037900;28;20045;-70
2022/01/01 11:56:49;;;;;;;10.52;6.55;;;13.40;99.90;;;;;;5037323;28;20045;-71
2022/01/01 11:59:21;;;;;;;12.02;7.10;;;13.40;99.90;;;;;;5037436;28;20167;-71
2022/01/01 12:01:48;;;;;;;12.07;5.85;;;13.40;99.90;;;;;;5019964;28;20049;-71
2022/01/01 12:04:33;;;;;;;8.95;5.82;;;13.40;99.90;;;;;;5018705;28;20057;-71
2022/01/01 12:07:18;;;;;;;11.50;5.68;;;13.40;99.90;;;;;;5019562;28;20834;-71
2022/01/01 12:10:03;;;;;;;12.95;7.43;;;13.40;99.90;;;;;;5008759;28;20061;-71
2022/01/01 12:12:50;;;;;;;15.60;5.85;;;13.40;99.90;;;;;;5036871;28;20053;-71
2022/01/01 12:15:26;;;;;;;11.20;6.55;;;13.40;99.90;;;;;;5019175;28;20060;-71
2022/01/01 12:18:06;;;;;;;8.75;5.43;;;13.40;99.90;;;;;;5037047;28;20041;-71
2022/01/01 12:20:46;;;;;;;9.18;5.30;;;13.40;99.90;;;;;;5018688;28;20053;-72
2022/01/01 12:23:23;;;;;;;12.43;5.63;;;13.40;99.90;;;;;;5018948;28;20049;-71
2022/01/01 12:25:52;;;;;;;10.15;6.15;;;13.50;99.90;;;;;;5018449;28;20130;-71
2022/01/01 12:28:36;;;;;;;11.65;5.55;;;13.40;99.90;;;;;;5036735;28;20606;-72
2022/01/01 12:31:05;;;;;;;;;;;13.40;99.90;;;;;;5019975;28;20040;-71
2022/01/01 12:33:50;;;;;;;8.73;5.00;;;13.40;99.90;;;;;;5018379;28;19931;-71